sensor_id;sensor_type;location;lat;lon;timestamp;temperature;humidity
49549;DHT22;35450;44.518;7.466;2024-02-04T00:02:23;11.30;69.90
49549;DHT22;35450;44.518;7.466;2024-02-04T00:05:29;11.30;69.90
49549;DHT22;35450;44.518;7.466;2024-02-04T00:08:32;11.10;71.00
49549;DHT22;35450;44.518;7.466;2024-02-04T00:11:36;10.90;71.50
49549;DHT22;35450;44.518;7.466;2024-02-04T00:14:40;10.80;71.50
49549;DHT22;35450;44.518;7.466;2024-02-04T00:17:44;10.90;70.50
49549;DHT22;35450;44.518;7.466;2024-02-04T00:20:48;11.10;69.70
49549;DHT22;35450;44.518;7.466;2024-02-04T00:23:52;11.20;69.90
49549;DHT22;35450;44.518;7.466;2024-02-04T00:26:56;11.20;70.60
49549;DHT22;35450;44.518;7.466;2024-02-04T00:30:00;10.90;72.20
49549;DHT22;35450;44.518;7.466;2024-02-04T00:33:05;10.70;72.20
49549;DHT22;35450;44.518;7.466;2024-02-04T00:36:09;10.90;71.50
49549;DHT22;35450;44.518;7.466;2024-02-04T00:39:12;10.90;71.80
49549;DHT22;35450;44.518;7.466;2024-02-04T00:42:16;10.70;72.40
49549;DHT22;35450;44.518;7.466;2024-02-04T00:45:20;10.70;72.80
49549;DHT22;35450;44.518;7.466;2024-02-04T00:48:24;10.60;73.10
49549;DHT22;35450;44.518;7.466;2024-02-04T00:51:28;10.60;72.30
49549;DHT22;35450;44.518;7.466;2024-02-04T00:54:32;10.40;72.40
49549;DHT22;35450;44.518;7.466;2024-02-04T00:57:37;10.50;71.10
49549;DHT22;35450;44.518;7.466;2024-02-04T01:00:41;10.50;71.80
49549;DHT22;35450;44.518;7.466;2024-02-04T01:03:45;10.50;71.40
49549;DHT22;35450;44.518;7.466;2024-02-04T01:06:49;10.40;72.40
49549;DHT22;35450;44.518;7.466;2024-02-04T01:09:54;10.50;71.50
49549;DHT22;35450;44.518;7.466;2024-02-04T01:12:58;10.60;71.40
49549;DHT22;35450;44.518;7.466;2024-02-04T01:16:02;10.70;71.00
49549;DHT22;35450;44.518;7.466;2024-02-04T01:19:06;10.90;70.40
49549;DHT22;35450;44.518;7.466;2024-02-04T01:22:09;10.90;69.90
49549;DHT22;35450;44.518;7.466;2024-02-04T01:25:13;11.10;68.80
49549;DHT22;35450;44.518;7.466;2024-02-04T01:28:17;11.20;68.50
49549;DHT22;35450;44.518;7.466;2024-02-04T01:31:22;11.20;69.20
49549;DHT22;35450;44.518;7.466;2024-02-04T01:34:25;11.30;68.20
49549;DHT22;35450;44.518;7.466;2024-02-04T01:37:29;11.10;70.20
49549;DHT22;35450;44.518;7.466;2024-02-04T01:40:33;10.90;70.20
49549;DHT22;35450;44.518;7.466;2024-02-04T01:43:37;10.90;69.80
49549;DHT22;35450;44.518;7.466;2024-02-04T01:46:42;11.00;69.30
49549;DHT22;35450;44.518;7.466;2024-02-04T01:49:46;11.10;68.50
49549;DHT22;35450;44.518;7.466;2024-02-04T01:52:51;11.20;68.90
49549;DHT22;35450;44.518;7.466;2024-02-04T01:55:56;11.00;70.20
49549;DHT22;35450;44.518;7.466;2024-02-04T01:59:01;11.00;70.00
49549;DHT22;35450;44.518;7.466;2024-02-04T02:02:06;10.80;70.90
49549;DHT22;35450;44.518;7.466;2024-02-04T02:05:10;10.70;71.40
49549;DHT22;35450;44.518;7.466;2024-02-04T02:08:14;10.50;72.20
49549;DHT22;35450;44.518;7.466;2024-02-04T02:11:21;10.30;72.40
49549;DHT22;35450;44.518;7.466;2024-02-04T02:14:33;10.40;72.00
49549;DHT22;35450;44.518;7.466;2024-02-04T02:17:52;10.40;71.70
49549;DHT22;35450;44.518;7.466;2024-02-04T02:21:16;10.10;73.20
49549;DHT22;35450;44.518;7.466;2024-02-04T02:27:26;9.80;73.90
49549;DHT22;35450;44.518;7.466;2024-02-04T02:30:30;10.00;72.60
49549;DHT22;35450;44.518;7.466;2024-02-04T02:33:34;10.10;73.30
49549;DHT22;35450;44.518;7.466;2024-02-04T02:36:44;9.90;73.80
49549;DHT22;35450;44.518;7.466;2024-02-04T02:40:20;9.80;73.40
49549;DHT22;35450;44.518;7.466;2024-02-04T02:43:27;10.00;72.40
49549;DHT22;35450;44.518;7.466;2024-02-04T02:46:33;10.10;71.80
49549;DHT22;35450;44.518;7.466;2024-02-04T02:49:37;10.10;72.30
49549;DHT22;35450;44.518;7.466;2024-02-04T02:52:42;9.90;72.60
49549;DHT22;35450;44.518;7.466;2024-02-04T02:55:46;9.90;72.80
49549;DHT22;35450;44.518;7.466;2024-02-04T02:58:50;9.90;72.40
49549;DHT22;35450;44.518;7.466;2024-02-04T03:01:54;10.00;71.80
49549;DHT22;35450;44.518;7.466;2024-02-04T03:04:59;9.90;71.40
49549;DHT22;35450;44.518;7.466;2024-02-04T03:08:03;10.00;71.90
49549;DHT22;35450;44.518;7.466;2024-02-04T03:11:07;9.70;72.90
49549;DHT22;35450;44.518;7.466;2024-02-04T03:14:11;9.70;72.70
49549;DHT22;35450;44.518;7.466;2024-02-04T03:17:15;9.70;72.10
49549;DHT22;35450;44.518;7.466;2024-02-04T03:20:24;9.60;72.60
49549;DHT22;35450;44.518;7.466;2024-02-04T03:23:28;9.70;72.30
49549;DHT22;35450;44.518;7.466;2024-02-04T03:26:33;9.80;72.70
49549;DHT22;35450;44.518;7.466;2024-02-04T03:29:37;9.80;73.20
49549;DHT22;35450;44.518;7.466;2024-02-04T03:32:40;9.90;72.40
49549;DHT22;35450;44.518;7.466;2024-02-04T03:35:44;9.70;73.70
49549;DHT22;35450;44.518;7.466;2024-02-04T03:38:49;9.60;73.90
49549;DHT22;35450;44.518;7.466;2024-02-04T03:41:53;9.30;73.90
49549;DHT22;35450;44.518;7.466;2024-02-04T03:44:57;9.20;73.80
49549;DHT22;35450;44.518;7.466;2024-02-04T03:48:01;9.30;73.00
49549;DHT22;35450;44.518;7.466;2024-02-04T03:51:05;9.40;71.90
49549;DHT22;35450;44.518;7.466;2024-02-04T03:54:09;9.60;71.30
49549;DHT22;35450;44.518;7.466;2024-02-04T03:57:14;9.80;70.70
49549;DHT22;35450;44.518;7.466;2024-02-04T04:00:18;10.00;70.10
49549;DHT22;35450;44.518;7.466;2024-02-04T04:03:22;10.00;70.10
49549;DHT22;35450;44.518;7.466;2024-02-04T04:06:27;10.10;70.80
49549;DHT22;35450;44.518;7.466;2024-02-04T04:09:31;9.90;71.40
49549;DHT22;35450;44.518;7.466;2024-02-04T04:12:35;9.90;71.20
49549;DHT22;35450;44.518;7.466;2024-02-04T04:15:39;9.50;72.20
49549;DHT22;35450;44.518;7.466;2024-02-04T04:18:44;9.60;70.90
49549;DHT22;35450;44.518;7.466;2024-02-04T04:21:48;9.70;70.10
49549;DHT22;35450;44.518;7.466;2024-02-04T04:24:52;9.90;69.50
49549;DHT22;35450;44.518;7.466;2024-02-04T04:27:56;10.00;69.60
49549;DHT22;35450;44.518;7.466;2024-02-04T04:31:02;9.80;70.20
49549;DHT22;35450;44.518;7.466;2024-02-04T04:34:06;9.90;69.10
49549;DHT22;35450;44.518;7.466;2024-02-04T04:37:10;10.00;68.00
49549;DHT22;35450;44.518;7.466;2024-02-04T04:40:14;10.00;68.70
49549;DHT22;35450;44.518;7.466;2024-02-04T04:43:18;10.00;68.60
49549;DHT22;35450;44.518;7.466;2024-02-04T04:46:22;10.00;69.10
49549;DHT22;35450;44.518;7.466;2024-02-04T04:49:26;10.00;69.30
49549;DHT22;35450;44.518;7.466;2024-02-04T04:52:30;10.00;69.50
49549;DHT22;35450;44.518;7.466;2024-02-04T04:55:34;10.00;69.10
49549;DHT22;35450;44.518;7.466;2024-02-04T04:58:38;10.10;69.00
49549;DHT22;35450;44.518;7.466;2024-02-04T05:01:46;10.10;69.60
49549;DHT22;35450;44.518;7.466;2024-02-04T05:04:50;10.00;68.50
49549;DHT22;35450;44.518;7.466;2024-02-04T05:07:54;10.00;68.80
49549;DHT22;35450;44.518;7.466;2024-02-04T05:10:58;9.70;70.90
49549;DHT22;35450;44.518;7.466;2024-02-04T05:14:02;9.60;70.40
49549;DHT22;35450;44.518;7.466;2024-02-04T05:17:06;9.60;70.50
49549;DHT22;35450;44.518;7.466;2024-02-04T05:20:10;9.70;68.70
49549;DHT22;35450;44.518;7.466;2024-02-04T05:23:14;9.80;69.60
49549;DHT22;35450;44.518;7.466;2024-02-04T05:26:18;9.90;68.80
49549;DHT22;35450;44.518;7.466;2024-02-04T05:29:22;9.90;68.70
49549;DHT22;35450;44.518;7.466;2024-02-04T05:32:26;10.00;68.10
49549;DHT22;35450;44.518;7.466;2024-02-04T05:35:30;10.10;67.30
49549;DHT22;35450;44.518;7.466;2024-02-04T05:38:34;10.20;66.60
49549;DHT22;35450;44.518;7.466;2024-02-04T05:41:39;10.30;66.80
49549;DHT22;35450;44.518;7.466;2024-02-04T05:44:44;10.30;67.40
49549;DHT22;35450;44.518;7.466;2024-02-04T05:47:47;10.10;68.40
49549;DHT22;35450;44.518;7.466;2024-02-04T05:50:51;9.90;69.50
49549;DHT22;35450;44.518;7.466;2024-02-04T05:53:55;9.60;69.90
49549;DHT22;35450;44.518;7.466;2024-02-04T05:57:00;9.40;70.40
49549;DHT22;35450;44.518;7.466;2024-02-04T06:00:04;9.40;70.40
49549;DHT22;35450;44.518;7.466;2024-02-04T06:03:13;9.50;70.70
49549;DHT22;35450;44.518;7.466;2024-02-04T06:06:18;9.10;70.80
49549;DHT22;35450;44.518;7.466;2024-02-04T06:09:24;9.20;70.90
49549;DHT22;35450;44.518;7.466;2024-02-04T06:12:29;9.40;69.20
49549;DHT22;35450;44.518;7.466;2024-02-04T06:15:33;9.40;71.00
49549;DHT22;35450;44.518;7.466;2024-02-04T06:18:39;9.50;70.70
49549;DHT22;35450;44.518;7.466;2024-02-04T06:21:43;9.40;71.90
49549;DHT22;35450;44.518;7.466;2024-02-04T06:24:47;9.00;72.30
49549;DHT22;35450;44.518;7.466;2024-02-04T06:27:52;8.70;72.60
49549;DHT22;35450;44.518;7.466;2024-02-04T06:30:57;8.80;72.30
49549;DHT22;35450;44.518;7.466;2024-02-04T06:34:01;8.80;72.10
49549;DHT22;35450;44.518;7.466;2024-02-04T06:37:05;9.00;71.50
49549;DHT22;35450;44.518;7.466;2024-02-04T06:40:10;8.90;72.20
49549;DHT22;35450;44.518;7.466;2024-02-04T06:43:14;8.70;72.90
49549;DHT22;35450;44.518;7.466;2024-02-04T06:46:26;8.80;72.30
49549;DHT22;35450;44.518;7.466;2024-02-04T06:49:29;9.00;71.10
49549;DHT22;35450;44.518;7.466;2024-02-04T06:52:34;8.80;72.00
49549;DHT22;35450;44.518;7.466;2024-02-04T06:55:38;8.60;72.90
49549;DHT22;35450;44.518;7.466;2024-02-04T06:58:43;8.60;73.50
49549;DHT22;35450;44.518;7.466;2024-02-04T07:01:47;8.30;73.70
49549;DHT22;35450;44.518;7.466;2024-02-04T07:04:51;8.20;74.40
49549;DHT22;35450;44.518;7.466;2024-02-04T07:07:55;8.30;73.70
49549;DHT22;35450;44.518;7.466;2024-02-04T07:10:59;8.60;72.80
49549;DHT22;35450;44.518;7.466;2024-02-04T07:14:03;8.80;71.60
49549;DHT22;35450;44.518;7.466;2024-02-04T07:17:06;9.00;70.70
49549;DHT22;35450;44.518;7.466;2024-02-04T07:20:10;9.10;70.70
49549;DHT22;35450;44.518;7.466;2024-02-04T07:23:14;9.10;70.10
49549;DHT22;35450;44.518;7.466;2024-02-04T07:26:18;9.20;70.30
49549;DHT22;35450;44.518;7.466;2024-02-04T07:29:22;9.00;71.60
49549;DHT22;35450;44.518;7.466;2024-02-04T07:32:26;9.10;70.70
49549;DHT22;35450;44.518;7.466;2024-02-04T07:35:30;9.30;70.90
49549;DHT22;35450;44.518;7.466;2024-02-04T07:38:34;9.40;71.80
49549;DHT22;35450;44.518;7.466;2024-02-04T07:41:39;9.30;73.10
49549;DHT22;35450;44.518;7.466;2024-02-04T07:44:43;9.30;71.60
49549;DHT22;35450;44.518;7.466;2024-02-04T07:47:46;9.40;70.60
49549;DHT22;35450;44.518;7.466;2024-02-04T07:50:50;9.50;70.60
49549;DHT22;35450;44.518;7.466;2024-02-04T07:53:55;9.60;69.70
49549;DHT22;35450;44.518;7.466;2024-02-04T07:56:59;9.70;70.70
49549;DHT22;35450;44.518;7.466;2024-02-04T08:00:04;9.90;71.00
49549;DHT22;35450;44.518;7.466;2024-02-04T08:03:17;10.00;71.10
49549;DHT22;35450;44.518;7.466;2024-02-04T08:06:21;10.10;71.10
49549;DHT22;35450;44.518;7.466;2024-02-04T08:09:25;10.20;70.10
49549;DHT22;35450;44.518;7.466;2024-02-04T08:12:29;10.20;70.40
49549;DHT22;35450;44.518;7.466;2024-02-04T08:15:33;10.20;72.20
49549;DHT22;35450;44.518;7.466;2024-02-04T08:18:37;10.10;76.10
49549;DHT22;35450;44.518;7.466;2024-02-04T08:21:41;10.10;72.10
49549;DHT22;35450;44.518;7.466;2024-02-04T08:24:45;10.20;71.10
49549;DHT22;35450;44.518;7.466;2024-02-04T08:27:50;10.40;68.60
49549;DHT22;35450;44.518;7.466;2024-02-04T08:30:54;10.50;68.70
49549;DHT22;35450;44.518;7.466;2024-02-04T08:33:58;10.70;70.30
49549;DHT22;35450;44.518;7.466;2024-02-04T08:37:02;10.80;70.90
49549;DHT22;35450;44.518;7.466;2024-02-04T08:40:07;10.90;71.50
49549;DHT22;35450;44.518;7.466;2024-02-04T08:43:11;11.00;69.30
49549;DHT22;35450;44.518;7.466;2024-02-04T08:46:15;11.20;67.30
49549;DHT22;35450;44.518;7.466;2024-02-04T08:49:19;11.30;66.60
49549;DHT22;35450;44.518;7.466;2024-02-04T08:52:23;11.50;65.60
49549;DHT22;35450;44.518;7.466;2024-02-04T08:55:28;11.60;64.30
49549;DHT22;35450;44.518;7.466;2024-02-04T08:58:32;11.70;64.10
49549;DHT22;35450;44.518;7.466;2024-02-04T09:01:36;11.80;62.70
49549;DHT22;35450;44.518;7.466;2024-02-04T09:04:40;11.90;61.90
49549;DHT22;35450;44.518;7.466;2024-02-04T09:07:44;12.00;61.60
49549;DHT22;35450;44.518;7.466;2024-02-04T09:10:48;11.90;62.00
49549;DHT22;35450;44.518;7.466;2024-02-04T09:13:52;11.90;63.60
49549;DHT22;35450;44.518;7.466;2024-02-04T09:16:56;11.90;64.60
49549;DHT22;35450;44.518;7.466;2024-02-04T09:20:00;11.90;66.30
49549;DHT22;35450;44.518;7.466;2024-02-04T09:23:05;11.90;66.80
49549;DHT22;35450;44.518;7.466;2024-02-04T09:26:09;11.80;67.10
49549;DHT22;35450;44.518;7.466;2024-02-04T09:29:13;11.80;67.50
49549;DHT22;35450;44.518;7.466;2024-02-04T09:32:17;11.80;67.10
49549;DHT22;35450;44.518;7.466;2024-02-04T09:35:21;11.80;66.80
49549;DHT22;35450;44.518;7.466;2024-02-04T09:38:25;11.80;66.90
49549;DHT22;35450;44.518;7.466;2024-02-04T09:41:29;11.80;67.00
49549;DHT22;35450;44.518;7.466;2024-02-04T09:44:33;12.00;66.70
49549;DHT22;35450;44.518;7.466;2024-02-04T09:47:40;12.00;65.90
49549;DHT22;35450;44.518;7.466;2024-02-04T09:50:46;12.20;65.90
49549;DHT22;35450;44.518;7.466;2024-02-04T09:53:52;12.20;66.30
49549;DHT22;35450;44.518;7.466;2024-02-04T09:56:57;12.10;66.30
49549;DHT22;35450;44.518;7.466;2024-02-04T10:00:02;12.10;66.10
49549;DHT22;35450;44.518;7.466;2024-02-04T10:03:15;12.10;66.30
49549;DHT22;35450;44.518;7.466;2024-02-04T10:06:20;12.60;65.20
49549;DHT22;35450;44.518;7.466;2024-02-04T10:09:24;13.00;62.30
49549;DHT22;35450;44.518;7.466;2024-02-04T10:12:28;13.10;61.00
49549;DHT22;35450;44.518;7.466;2024-02-04T10:15:32;13.40;61.10
49549;DHT22;35450;44.518;7.466;2024-02-04T10:18:37;13.60;59.20
49549;DHT22;35450;44.518;7.466;2024-02-04T10:21:41;13.60;59.60
49549;DHT22;35450;44.518;7.466;2024-02-04T10:24:45;13.40;59.80
49549;DHT22;35450;44.518;7.466;2024-02-04T10:27:52;13.10;60.20
49549;DHT22;35450;44.518;7.466;2024-02-04T10:30:57;12.90;60.50
49549;DHT22;35450;44.518;7.466;2024-02-04T10:34:01;13.30;60.70
49549;DHT22;35450;44.518;7.466;2024-02-04T10:37:05;13.50;61.70
49549;DHT22;35450;44.518;7.466;2024-02-04T10:40:10;13.70;64.70
49549;DHT22;35450;44.518;7.466;2024-02-04T10:43:14;14.00;64.20
49549;DHT22;35450;44.518;7.466;2024-02-04T10:46:19;14.00;64.40
49549;DHT22;35450;44.518;7.466;2024-02-04T10:49:26;14.00;64.70
49549;DHT22;35450;44.518;7.466;2024-02-04T10:52:38;14.00;65.00
49549;DHT22;35450;44.518;7.466;2024-02-04T10:55:46;14.00;67.50
49549;DHT22;35450;44.518;7.466;2024-02-04T10:58:53;14.00;69.90
49549;DHT22;35450;44.518;7.466;2024-02-04T11:01:58;14.20;74.50
49549;DHT22;35450;44.518;7.466;2024-02-04T11:05:04;14.10;75.40
49549;DHT22;35450;44.518;7.466;2024-02-04T11:08:11;14.00;75.50
49549;DHT22;35450;44.518;7.466;2024-02-04T11:11:15;14.20;75.80
49549;DHT22;35450;44.518;7.466;2024-02-04T11:14:21;14.10;76.40
49549;DHT22;35450;44.518;7.466;2024-02-04T11:18:03;13.90;76.70
49549;DHT22;35450;44.518;7.466;2024-02-04T11:24:47;13.50;77.90
49549;DHT22;35450;44.518;7.466;2024-02-04T11:27:56;13.40;78.30
49549;DHT22;35450;44.518;7.466;2024-02-04T11:31:01;13.30;78.70
49549;DHT22;35450;44.518;7.466;2024-02-04T11:34:05;13.40;78.80
49549;DHT22;35450;44.518;7.466;2024-02-04T11:37:16;13.80;77.50
49549;DHT22;35450;44.518;7.466;2024-02-04T11:40:20;14.10;76.20
49549;DHT22;35450;44.518;7.466;2024-02-04T11:43:26;14.40;75.80
49549;DHT22;35450;44.518;7.466;2024-02-04T11:46:31;14.40;75.50
49549;DHT22;35450;44.518;7.466;2024-02-04T11:49:36;14.50;74.80
49549;DHT22;35450;44.518;7.466;2024-02-04T11:52:40;14.30;75.10
49549;DHT22;35450;44.518;7.466;2024-02-04T11:55:45;14.30;76.00
49549;DHT22;35450;44.518;7.466;2024-02-04T11:58:49;14.40;76.40
49549;DHT22;35450;44.518;7.466;2024-02-04T12:01:54;14.40;75.90
49549;DHT22;35450;44.518;7.466;2024-02-04T12:04:59;14.50;76.10
49549;DHT22;35450;44.518;7.466;2024-02-04T12:08:08;14.60;76.30
49549;DHT22;35450;44.518;7.466;2024-02-04T12:11:12;14.70;76.70
49549;DHT22;35450;44.518;7.466;2024-02-04T12:14:18;14.90;77.70
49549;DHT22;35450;44.518;7.466;2024-02-04T12:17:22;15.00;76.90
49549;DHT22;35450;44.518;7.466;2024-02-04T12:20:27;15.00;75.30
49549;DHT22;35450;44.518;7.466;2024-02-04T12:23:31;15.00;74.80
49549;DHT22;35450;44.518;7.466;2024-02-04T12:26:35;15.00;74.30
49549;DHT22;35450;44.518;7.466;2024-02-04T12:29:39;15.20;74.60
49549;DHT22;35450;44.518;7.466;2024-02-04T12:32:43;15.40;72.90
49549;DHT22;35450;44.518;7.466;2024-02-04T12:35:51;15.50;73.10
49549;DHT22;35450;44.518;7.466;2024-02-04T12:38:59;15.30;73.50
49549;DHT22;35450;44.518;7.466;2024-02-04T12:42:04;15.50;73.30
49549;DHT22;35450;44.518;7.466;2024-02-04T12:45:09;15.50;72.10
49549;DHT22;35450;44.518;7.466;2024-02-04T12:48:15;15.20;70.30
49549;DHT22;35450;44.518;7.466;2024-02-04T12:51:28;15.10;70.30
49549;DHT22;35450;44.518;7.466;2024-02-04T12:54:43;15.00;70.40
49549;DHT22;35450;44.518;7.466;2024-02-04T12:57:48;15.00;70.60
49549;DHT22;35450;44.518;7.466;2024-02-04T13:01:02;15.00;72.10
49549;DHT22;35450;44.518;7.466;2024-02-04T13:04:08;15.20;69.10
49549;DHT22;35450;44.518;7.466;2024-02-04T13:07:13;15.30;69.60
49549;DHT22;35450;44.518;7.466;2024-02-04T13:10:18;15.40;70.30
49549;DHT22;35450;44.518;7.466;2024-02-04T13:13:22;15.50;73.40
49549;DHT22;35450;44.518;7.466;2024-02-04T13:16:26;15.50;73.20
49549;DHT22;35450;44.518;7.466;2024-02-04T13:19:35;15.50;71.00
49549;DHT22;35450;44.518;7.466;2024-02-04T13:22:41;15.40;72.70
49549;DHT22;35450;44.518;7.466;2024-02-04T13:25:45;15.50;72.50
49549;DHT22;35450;44.518;7.466;2024-02-04T13:28:51;15.40;71.90
49549;DHT22;35450;44.518;7.466;2024-02-04T13:31:55;15.20;71.60
49549;DHT22;35450;44.518;7.466;2024-02-04T13:34:59;15.20;71.60
49549;DHT22;35450;44.518;7.466;2024-02-04T13:38:04;15.20;71.20
49549;DHT22;35450;44.518;7.466;2024-02-04T13:41:09;15.00;71.40
49549;DHT22;35450;44.518;7.466;2024-02-04T13:44:13;14.90;72.30
49549;DHT22;35450;44.518;7.466;2024-02-04T13:47:17;14.90;72.50
49549;DHT22;35450;44.518;7.466;2024-02-04T13:50:21;15.30;71.20
49549;DHT22;35450;44.518;7.466;2024-02-04T13:53:25;15.70;70.10
49549;DHT22;35450;44.518;7.466;2024-02-04T13:56:30;15.80;69.70
49549;DHT22;35450;44.518;7.466;2024-02-04T13:59:36;16.00;69.20
49549;DHT22;35450;44.518;7.466;2024-02-04T14:02:40;16.30;67.60
49549;DHT22;35450;44.518;7.466;2024-02-04T14:05:45;16.40;67.80
49549;DHT22;35450;44.518;7.466;2024-02-04T14:08:49;16.20;68.30
49549;DHT22;35450;44.518;7.466;2024-02-04T14:11:53;16.30;67.80
49549;DHT22;35450;44.518;7.466;2024-02-04T14:14:58;16.20;67.90
49549;DHT22;35450;44.518;7.466;2024-02-04T14:18:03;16.10;68.00
49549;DHT22;35450;44.518;7.466;2024-02-04T14:21:07;16.10;68.40
49549;DHT22;35450;44.518;7.466;2024-02-04T14:24:13;16.10;68.30
49549;DHT22;35450;44.518;7.466;2024-02-04T14:27:17;16.00;68.20
49549;DHT22;35450;44.518;7.466;2024-02-04T14:30:21;15.90;68.30
49549;DHT22;35450;44.518;7.466;2024-02-04T14:33:25;16.30;69.50
49549;DHT22;35450;44.518;7.466;2024-02-04T14:36:29;16.50;69.30
49549;DHT22;35450;44.518;7.466;2024-02-04T14:39:33;16.70;68.40
49549;DHT22;35450;44.518;7.466;2024-02-04T14:42:37;16.70;68.20
49549;DHT22;35450;44.518;7.466;2024-02-04T14:45:42;16.50;69.40
49549;DHT22;35450;44.518;7.466;2024-02-04T14:48:46;16.50;70.40
49549;DHT22;35450;44.518;7.466;2024-02-04T14:51:50;16.50;66.70
49549;DHT22;35450;44.518;7.466;2024-02-04T14:54:54;16.60;67.40
49549;DHT22;35450;44.518;7.466;2024-02-04T14:57:58;16.60;66.60
49549;DHT22;35450;44.518;7.466;2024-02-04T15:01:03;16.60;67.60
49549;DHT22;35450;44.518;7.466;2024-02-04T15:04:07;16.60;71.40
49549;DHT22;35450;44.518;7.466;2024-02-04T15:07:11;16.80;70.70
49549;DHT22;35450;44.518;7.466;2024-02-04T15:10:15;17.00;70.20
49549;DHT22;35450;44.518;7.466;2024-02-04T15:13:19;17.10;70.90
49549;DHT22;35450;44.518;7.466;2024-02-04T15:16:24;17.30;70.90
49549;DHT22;35450;44.518;7.466;2024-02-04T15:19:28;17.20;69.90
49549;DHT22;35450;44.518;7.466;2024-02-04T15:22:34;17.10;70.40
49549;DHT22;35450;44.518;7.466;2024-02-04T15:25:38;17.00;72.60
49549;DHT22;35450;44.518;7.466;2024-02-04T15:28:43;16.90;72.90
49549;DHT22;35450;44.518;7.466;2024-02-04T15:31:48;16.80;72.10
49549;DHT22;35450;44.518;7.466;2024-02-04T15:34:53;16.80;72.00
49549;DHT22;35450;44.518;7.466;2024-02-04T15:37:57;16.80;71.30
49549;DHT22;35450;44.518;7.466;2024-02-04T15:41:02;16.60;70.30
49549;DHT22;35450;44.518;7.466;2024-02-04T15:44:06;16.50;70.40
49549;DHT22;35450;44.518;7.466;2024-02-04T15:47:13;16.30;71.60
49549;DHT22;35450;44.518;7.466;2024-02-04T15:50:17;16.10;72.60
49549;DHT22;35450;44.518;7.466;2024-02-04T15:53:22;15.90;72.70
49549;DHT22;35450;44.518;7.466;2024-02-04T15:56:27;15.80;72.80
49549;DHT22;35450;44.518;7.466;2024-02-04T15:59:51;15.60;73.40
49549;DHT22;35450;44.518;7.466;2024-02-04T16:02:56;15.40;73.30
49549;DHT22;35450;44.518;7.466;2024-02-04T16:06:00;15.30;73.50
49549;DHT22;35450;44.518;7.466;2024-02-04T16:09:04;15.20;73.60
49549;DHT22;35450;44.518;7.466;2024-02-04T16:12:21;15.20;73.30
49549;DHT22;35450;44.518;7.466;2024-02-04T16:15:29;15.10;73.50
49549;DHT22;35450;44.518;7.466;2024-02-04T16:18:33;14.90;73.70
49549;DHT22;35450;44.518;7.466;2024-02-04T16:21:38;14.80;73.80
49549;DHT22;35450;44.518;7.466;2024-02-04T16:24:42;14.70;73.80
49549;DHT22;35450;44.518;7.466;2024-02-04T16:27:47;14.70;73.80
49549;DHT22;35450;44.518;7.466;2024-02-04T16:30:51;14.60;74.00
49549;DHT22;35450;44.518;7.466;2024-02-04T16:33:56;14.50;74.30
49549;DHT22;35450;44.518;7.466;2024-02-04T16:37:01;14.50;74.40
49549;DHT22;35450;44.518;7.466;2024-02-04T16:40:06;14.40;74.80
49549;DHT22;35450;44.518;7.466;2024-02-04T16:43:10;14.30;74.30
49549;DHT22;35450;44.518;7.466;2024-02-04T16:46:14;14.30;74.10
49549;DHT22;35450;44.518;7.466;2024-02-04T16:49:18;14.20;74.90
49549;DHT22;35450;44.518;7.466;2024-02-04T16:52:22;14.10;75.10
49549;DHT22;35450;44.518;7.466;2024-02-04T16:55:25;14.10;75.10
49549;DHT22;35450;44.518;7.466;2024-02-04T16:58:29;14.00;75.20
49549;DHT22;35450;44.518;7.466;2024-02-04T17:01:33;13.90;75.60
49549;DHT22;35450;44.518;7.466;2024-02-04T17:04:38;13.90;73.10
49549;DHT22;35450;44.518;7.466;2024-02-04T17:07:42;13.90;72.80
49549;DHT22;35450;44.518;7.466;2024-02-04T17:10:46;13.80;74.30
49549;DHT22;35450;44.518;7.466;2024-02-04T17:13:52;13.80;73.80
49549;DHT22;35450;44.518;7.466;2024-02-04T17:20:13;13.60;73.40
49549;DHT22;35450;44.518;7.466;2024-02-04T17:23:30;13.50;74.50
49549;DHT22;35450;44.518;7.466;2024-02-04T17:26:37;13.40;74.50
49549;DHT22;35450;44.518;7.466;2024-02-04T17:29:42;13.40;75.10
49549;DHT22;35450;44.518;7.466;2024-02-04T17:32:47;13.30;75.00
49549;DHT22;35450;44.518;7.466;2024-02-04T17:35:56;13.40;75.00
49549;DHT22;35450;44.518;7.466;2024-02-04T17:39:00;13.40;75.10
49549;DHT22;35450;44.518;7.466;2024-02-04T17:42:08;13.40;75.20
49549;DHT22;35450;44.518;7.466;2024-02-04T17:45:15;13.40;75.10
49549;DHT22;35450;44.518;7.466;2024-02-04T17:48:18;13.40;74.80
49549;DHT22;35450;44.518;7.466;2024-02-04T17:51:23;13.40;75.00
49549;DHT22;35450;44.518;7.466;2024-02-04T17:54:27;13.40;75.10
49549;DHT22;35450;44.518;7.466;2024-02-04T17:57:32;13.30;75.20
49549;DHT22;35450;44.518;7.466;2024-02-04T18:00:36;13.20;75.80
49549;DHT22;35450;44.518;7.466;2024-02-04T18:03:41;13.10;75.40
49549;DHT22;35450;44.518;7.466;2024-02-04T18:06:45;13.10;75.50
49549;DHT22;35450;44.518;7.466;2024-02-04T18:09:49;13.00;75.30
49549;DHT22;35450;44.518;7.466;2024-02-04T18:12:53;13.00;75.50
49549;DHT22;35450;44.518;7.466;2024-02-04T18:15:57;13.00;73.60
49549;DHT22;35450;44.518;7.466;2024-02-04T18:19:01;13.00;74.60
49549;DHT22;35450;44.518;7.466;2024-02-04T18:22:05;12.90;75.10
49549;DHT22;35450;44.518;7.466;2024-02-04T18:25:10;13.00;74.40
49549;DHT22;35450;44.518;7.466;2024-02-04T18:28:14;13.00;74.40
49549;DHT22;35450;44.518;7.466;2024-02-04T18:31:18;13.00;74.80
49549;DHT22;35450;44.518;7.466;2024-02-04T18:34:22;13.00;75.10
49549;DHT22;35450;44.518;7.466;2024-02-04T18:37:26;12.90;74.90
49549;DHT22;35450;44.518;7.466;2024-02-04T18:40:30;12.80;75.80
49549;DHT22;35450;44.518;7.466;2024-02-04T18:43:34;12.70;76.60
49549;DHT22;35450;44.518;7.466;2024-02-04T18:46:38;12.80;76.60
49549;DHT22;35450;44.518;7.466;2024-02-04T18:49:42;12.80;76.70
49549;DHT22;35450;44.518;7.466;2024-02-04T18:52:46;12.80;77.00
49549;DHT22;35450;44.518;7.466;2024-02-04T18:55:50;12.80;77.40
49549;DHT22;35450;44.518;7.466;2024-02-04T18:58:55;12.70;78.30
49549;DHT22;35450;44.518;7.466;2024-02-04T19:02:00;12.70;78.30
49549;DHT22;35450;44.518;7.466;2024-02-04T19:05:05;12.70;77.80
49549;DHT22;35450;44.518;7.466;2024-02-04T19:08:09;12.70;77.40
49549;DHT22;35450;44.518;7.466;2024-02-04T19:11:13;12.70;76.40
49549;DHT22;35450;44.518;7.466;2024-02-04T19:14:18;12.70;75.60
49549;DHT22;35450;44.518;7.466;2024-02-04T19:17:23;12.80;75.10
49549;DHT22;35450;44.518;7.466;2024-02-04T19:20:28;12.80;74.90
49549;DHT22;35450;44.518;7.466;2024-02-04T19:23:31;12.70;74.50
49549;DHT22;35450;44.518;7.466;2024-02-04T19:26:36;12.50;75.00
49549;DHT22;35450;44.518;7.466;2024-02-04T19:29:40;12.40;75.90
49549;DHT22;35450;44.518;7.466;2024-02-04T19:32:49;12.40;77.00
49549;DHT22;35450;44.518;7.466;2024-02-04T19:35:53;12.40;76.50
49549;DHT22;35450;44.518;7.466;2024-02-04T19:38:57;12.40;75.70
49549;DHT22;35450;44.518;7.466;2024-02-04T19:42:01;12.40;75.40
49549;DHT22;35450;44.518;7.466;2024-02-04T19:45:05;12.30;75.10